Time;durP1;ratioP1;P1;durP2;ratioP2;P2;SDS_P1;SDS_P2;PMS_P1;PMS_P2;Temp;Humidity;BMP_temperature;BMP_pressure;BME280_temperature;BME280_humidity;BME280_pressure;Samples;Min_cycle;Max_cycle;Signal;HPM_P1;HPM_P2
2024/01/01 00:01:21;;;;;;;;;;;;;;;;;;5040545;28;20371;-65
2024/01/01 00:03:48;;;;;;;;;;;;;;;;;;5040222;28;19928;-67
2024/01/01 00:06:15;;;;;;;;;;;;;;;;;;5039388;28;19921;-67
2024/01/01 00:08:42;;;;;;;;;;;;;;;;;;5047767;28;19920;-66
2024/01/01 00:11:09;;;;;;;;;;;;;;;;;;5057990;28;19966;-66
2024/01/01 00:13:35;;;;;;;;;;;;;;;;;;5056560;28;19974;-65
2024/01/01 00:16:02;;;;;;;;;;;;;;;;;;5062668;28;19970;-67
2024/01/01 00:18:29;;;;;;;;;;;;;;;;;;5057472;28;19929;-66
2024/01/01 00:20:56;;;;;;;;;;;;;;;;;;5048048;28;19921;-65
2024/01/01 00:23:23;;;;;;;;;;;;;;;;;;5043017;28;19975;-66
2024/01/01 00:25:50;;;;;;;;;;;;;;;;;;5044179;28;19925;-65
2024/01/01 00:28:16;;;;;;;;;;;;;;;;;;5045190;28;19921;-66
2024/01/01 00:30:43;;;;;;;;;;;;;;;;;;5045420;28;19974;-66
2024/01/01 00:33:10;;;;;;;;;;;;;;;;;;5045855;28;19968;-67
2024/01/01 00:35:37;;;;;;;;;;;;;;;;;;5044650;28;19978;-66
2024/01/01 00:38:04;;;;;;;;;;;;;;;;;;5046360;28;19947;-64
2024/01/01 00:40:31;;;;;;;;;;;;;;;;;;5045720;28;19967;-64
2024/01/01 00:42:58;;;;;;;;;;;;;;;;;;5046309;28;19928;-65
2024/01/01 00:45:25;;;;;;;;;;;;;;;;;;5047816;28;19920;-64
2024/01/01 00:47:52;;;;;;;;;;;;;;;;;;5046977;28;19924;-64
2024/01/01 00:50:18;;;;;;;;;;;;;;;;;;5049035;28;19921;-64
2024/01/01 00:52:45;;;;;;;;;;;;;;;;;;5049899;28;19921;-64
2024/01/01 00:55:12;;;;;;;;;;;;;;;;;;5046576;28;19931;-64
2024/01/01 00:57:39;;;;;;;;;;;;;;;;;;5050017;28;19925;-64
2024/01/01 01:00:06;;;;;;;;;;;;;;;;;;5046734;28;19971;-64
2024/01/01 01:02:33;;;;;;;;;;;;;;;;;;5050175;28;19925;-65
2024/01/01 01:05:00;;;;;;;;;;;;;;;;;;5047942;28;19925;-64
2024/01/01 01:07:27;;;;;;;;;;;;;;;;;;5048007;28;19920;-64
2024/01/01 01:09:53;;;;;;;;;;;;;;;;;;5049604;28;20367;-64
2024/01/01 01:12:20;;;;;;;;;;;;;;;;;;5046757;28;20415;-64
2024/01/01 01:14:47;;;;;;;;;;;;;;;;;;5050290;28;19931;-65
2024/01/01 01:17:14;;;;;;;;;;;;;;;;;;5046906;28;19921;-64
2024/01/01 01:19:41;;;;;;;;;;;;;;;;;;5049995;28;19975;-64
2024/01/01 01:22:08;;;;;;;;;;;;;;;;;;5048642;28;19967;-64
2024/01/01 01:24:34;;;;;;;;;;;;;;;;;;5049671;28;19967;-64
2024/01/01 01:27:02;;;;;;;;;;;;;;;;;;5049394;28;19920;-64
2024/01/01 01:29:29;;;;;;;;;;;;;;;;;;5047341;28;19921;-64
2024/01/01 01:31:56;;;;;;;;;;;;;;;;;;5048219;28;19928;-64
2024/01/01 01:34:23;;;;;;;;;;;;;;;;;;5045064;28;19925;-64
2024/01/01 01:36:50;;;;;;;;;;;;;;;;;;5054547;28;19920;-64
2024/01/01 01:39:17;;;;;;;;;;;;;;;;;;5048008;28;19936;-64
2024/01/01 01:41:44;;;;;;;;;;;;;;;;;;5043980;28;19983;-65
2024/01/01 01:44:11;;;;;;;;;;;;;;;;;;5050524;28;19924;-65
2024/01/01 01:46:38;;;;;;;;;;;;;;;;;;5059518;28;19921;-65
2024/01/01 01:49:05;;;;;;;;;;;;;;;;;;5049793;28;19967;-64
2024/01/01 01:51:31;;;;;;;;;;;;;;;;;;5044606;28;19921;-64
2024/01/01 01:53:58;;;;;;;;;;;;;;;;;;5045560;28;19928;-64
2024/01/01 01:56:25;;;;;;;;;;;;;;;;;;5047200;28;19971;-64
2024/01/01 01:58:52;;;;;;;;;;;;;;;;;;5046195;28;19970;-64
2024/01/01 02:01:19;;;;;;;;;;;;;;;;;;5049389;28;19920;-64
2024/01/01 02:03:46;;;;;;;;;;;;;;;;;;5047342;28;19921;-64
2024/01/01 02:06:12;;;;;;;;;;;;;;;;;;5047449;28;19967;-64
2024/01/01 02:08:39;;;;;;;;;;;;;;;;;;5044805;28;19963;-64
2024/01/01 02:11:06;;;;;;;;;;;;;;;;;;5046903;28;19975;-65
2024/01/01 02:13:33;;;;;;;;;;;;;;;;;;5046503;28;19967;-64
2024/01/01 02:16:00;;;;;;;;;;;;;;;;;;5046922;28;20393;-65
2024/01/01 02:18:27;;;;;;;;;;;;;;;;;;5046381;28;20383;-65
2024/01/01 02:20:54;;;;;;;;;;;;;;;;;;5045287;28;20268;-65
2024/01/01 02:23:21;;;;;;;;;;;;;;;;;;5043875;28;20334;-65
2024/01/01 02:25:48;;;;;;;;;;;;;;;;;;5045871;28;20575;-64
2024/01/01 02:28:15;;;;;;;;;;;;;;;;;;5041878;28;19943;-64
2024/01/01 02:30:41;;;;;;;;;;;;;;;;;;5045840;28;19929;-64
2024/01/01 02:33:08;;;;;;;;;;;;;;;;;;5042661;28;19925;-65
2024/01/01 02:35:35;;;;;;;;;;;;;;;;;;5045112;28;19924;-65
2024/01/01 02:38:04;;;;;;;;;;;;;;;;;;5045109;28;19921;-65
2024/01/01 02:40:31;;;;;;;;;;;;;;;;;;5044540;28;20019;-65
2024/01/01 02:43:00;;;;;;;;;;;;;;;;;;5045740;28;19920;-65
2024/01/01 02:45:27;;;;;;;;;;;;;;;;;;5043483;28;19920;-65
2024/01/01 02:47:54;;;;;;;;;;;;;;;;;;5045920;28;19943;-65
2024/01/01 02:50:21;;;;;;;;;;;;;;;;;;5042056;28;19921;-65
2024/01/01 02:52:48;;;;;;;;;;;;;;;;;;5046660;28;19974;-65
2024/01/01 02:55:14;;;;;;;;;;;;;;;;;;5049358;28;19987;-65
2024/01/01 02:57:41;;;;;;;;;;;;;;;;;;5045393;28;19921;-65
2024/01/01 03:00:09;;;;;;;;;;;;;;;;;;5045719;28;19967;-65
2024/01/01 03:02:38;;;;;;;;;;;;;;;;;;5044590;28;20351;-64
2024/01/01 03:05:05;;;;;;;;;;;;;;;;;;5051304;28;19946;-65
2024/01/01 03:07:32;;;;;;;;;;;;;;;;;;5045276;28;19921;-64
2024/01/01 03:09:59;;;;;;;;;;;;;;;;;;5044603;28;19925;-64
2024/01/01 03:12:26;;;;;;;;;;;;;;;;;;5043825;28;20268;-64
2024/01/01 03:14:52;;;;;;;;;;;;;;;;;;5042436;28;19927;-65
2024/01/01 03:17:19;;;;;;;;;;;;;;;;;;5043971;28;19970;-65
2024/01/01 03:19:46;;;;;;;;;;;;;;;;;;5043689;28;19921;-65
2024/01/01 03:22:13;;;;;;;;;;;;;;;;;;5041392;28;20268;-64
2024/01/01 03:24:40;;;;;;;;;;;;;;;;;;5044984;28;19921;-64
2024/01/01 03:27:07;;;;;;;;;;;;;;;;;;5047519;28;20156;-65
2024/01/01 03:29:33;;;;;;;;;;;;;;;;;;5040989;28;20362;-65
2024/01/01 03:32:00;;;;;;;;;;;;;;;;;;5042420;28;20383;-65
2024/01/01 03:34:27;;;;;;;;;;;;;;;;;;5039970;28;20379;-64
2024/01/01 03:36:54;;;;;;;;;;;;;;;;;;5043399;28;19921;-65
2024/01/01 03:39:21;;;;;;;;;;;;;;;;;;5041459;28;19921;-65
2024/01/01 03:41:48;;;;;;;;;;;;;;;;;;5044363;28;19925;-64
2024/01/01 03:44:15;;;;;;;;;;;;;;;;;;5040732;28;19921;-65
2024/01/01 03:46:42;;;;;;;;;;;;;;;;;;5040384;28;20387;-64
2024/01/01 03:49:09;;;;;;;;;;;;;;;;;;5041562;28;20404;-64
2024/01/01 03:51:35;;;;;;;;;;;;;;;;;;5043375;28;19967;-65
2024/01/01 03:54:02;;;;;;;;;;;;;;;;;;5042942;28;19974;-64
2024/01/01 03:56:29;;;;;;;;;;;;;;;;;;5046491;28;19947;-64
2024/01/01 03:58:56;;;;;;;;;;;;;;;;;;5048159;28;19920;-65
2024/01/01 04:01:25;;;;;;;;;;;;;;;;;;5044143;28;19940;-64
2024/01/01 04:03:52;;;;;;;;;;;;;;;;;;5047905;28;19921;-64
2024/01/01 04:06:19;;;;;;;;;;;;;;;;;;5044857;28;20007;-65
2024/01/01 04:08:46;;;;;;;;;;;;;;;;;;5043913;28;19975;-65
2024/01/01 04:11:13;;;;;;;;;;;;;;;;;;5046137;28;19925;-64
2024/01/01 04:13:40;;;;;;;;;;;;;;;;;;5045883;28;20406;-64
2024/01/01 04:16:08;;;;;;;;;;;;;;;;;;5051227;28;19925;-64
2024/01/01 04:18:35;;;;;;;;;;;;;;;;;;5044974;28;19921;-64
2024/01/01 04:21:02;;;;;;;;;;;;;;;;;;5047924;28;19929;-65
2024/01/01 04:23:28;;;;;;;;;;;;;;;;;;5046589;28;19928;-64
2024/01/01 04:25:55;;;;;;;;;;;;;;;;;;5050501;28;19921;-65
2024/01/01 04:28:22;;;;;;;;;;;;;;;;;;5046453;28;19929;-64
2024/01/01 04:30:49;;;;;;;;;;;;;;;;;;5046881;28;19920;-65
2024/01/01 04:33:18;;;;;;;;;;;;;;;;;;5046618;28;19924;-64
2024/01/01 04:35:45;;;;;;;;;;;;;;;;;;5045988;28;19920;-65
2024/01/01 04:38:12;;;;;;;;;;;;;;;;;;5046927;28;19929;-64
2024/01/01 04:40:39;;;;;;;;;;;;;;;;;;5044146;28;19943;-64
2024/01/01 04:43:06;;;;;;;;;;;;;;;;;;5044769;28;19933;-64
2024/01/01 04:45:35;;;;;;;;;;;;;;;;;;5046836;28;19921;-65
2024/01/01 04:48:02;;;;;;;;;;;;;;;;;;5043827;28;19935;-65
2024/01/01 04:50:29;;;;;;;;;;;;;;;;;;5048922;28;19921;-64
2024/01/01 04:52:56;;;;;;;;;;;;;;;;;;5053872;28;19967;-65
2024/01/01 04:55:23;;;;;;;;;;;;;;;;;;5045695;28;19971;-64
2024/01/01 04:57:50;;;;;;;;;;;;;;;;;;5047351;28;19967;-65
2024/01/01 05:00:17;;;;;;;;;;;;;;;;;;5043377;28;19971;-65
2024/01/01 05:02:43;;;;;;;;;;;;;;;;;;5043705;28;19967;-64
2024/01/01 05:05:11;;;;;;;;;;;;;;;;;;5045238;28;19971;-65
2024/01/01 05:07:38;;;;;;;;;;;;;;;;;;5046575;28;19920;-65
2024/01/01 05:10:04;;;;;;;;;;;;;;;;;;5046035;28;19920;-65
2024/01/01 05:12:31;;;;;;;;;;;;;;;;;;5045033;28;19986;-65
2024/01/01 05:14:59;;;;;;;;;;;;;;;;;;5047581;28;20357;-65
2024/01/01 05:17:26;;;;;;;;;;;;;;;;;;5043824;28;19921;-65
2024/01/01 05:19:53;;;;;;;;;;;;;;;;;;5047169;28;19921;-64
2024/01/01 05:22:20;;;;;;;;;;;;;;;;;;5043229;28;19983;-65
2024/01/01 05:24:47;;;;;;;;;;;;;;;;;;5046406;28;19943;-65
2024/01/01 05:27:13;;;;;;;;;;;;;;;;;;5045227;28;19920;-65
2024/01/01 05:29:40;;;;;;;;;;;;;;;;;;5045934;28;19925;-65
2024/01/01 05:32:07;;;;;;;;;;;;;;;;;;5046280;28;19920;-65
2024/01/01 05:34:34;;;;;;;;;;;;;;;;;;5041867;28;19954;-65
2024/01/01 05:37:01;;;;;;;;;;;;;;;;;;5046306;28;19925;-65
2024/01/01 05:39:28;;;;;;;;;;;;;;;;;;5042864;28;19921;-64
2024/01/01 05:41:54;;;;;;;;;;;;;;;;;;5045377;28;19921;-65
2024/01/01 05:44:21;;;;;;;;;;;;;;;;;;5041665;28;19924;-64
2024/01/01 05:46:49;;;;;;;;;;;;;;;;;;5045490;28;20034;-65
2024/01/01 05:49:17;;;;;;;;;;;;;;;;;;5045609;28;19920;-64
2024/01/01 05:51:44;;;;;;;;;;;;;;;;;;5044216;28;19983;-65
2024/01/01 05:54:11;;;;;;;;;;;;;;;;;;5041687;28;19925;-65
2024/01/01 05:56:38;;;;;;;;;;;;;;;;;;5042764;28;19924;-64
2024/01/01 05:59:04;;;;;;;;;;;;;;;;;;5043704;28;19935;-65
2024/01/01 06:01:31;;;;;;;;;;;;;;;;;;5045082;28;19971;-65
2024/01/01 06:03:58;;;;;;;;;;;;;;;;;;5044868;28;19921;-65
2024/01/01 06:06:25;;;;;;;;;;;;;;;;;;5045093;28;19925;-65
2024/01/01 06:08:52;;;;;;;;;;;;;;;;;;5043999;28;19925;-65
2024/01/01 06:11:19;;;;;;;;;;;;;;;;;;5041883;28;19982;-64
2024/01/01 06:13:46;;;;;;;;;;;;;;;;;;5048278;28;19983;-64
2024/01/01 06:16:13;;;;;;;;;;;;;;;;;;5045640;28;19920;-65
2024/01/01 06:18:40;;;;;;;;;;;;;;;;;;5041883;28;19948;-65
2024/01/01 06:21:07;;;;;;;;;;;;;;;;;;5044777;28;19967;-64
2024/01/01 06:23:34;;;;;;;;;;;;;;;;;;5043773;28;19975;-65
2024/01/01 06:26:01;;;;;;;;;;;;;;;;;;5043949;28;19929;-65
2024/01/01 06:28:28;;;;;;;;;;;;;;;;;;5042366;28;19921;-65
2024/01/01 06:30:55;;;;;;;;;;;;;;;;;;5045280;28;19927;-64
2024/01/01 06:33:21;;;;;;;;;;;;;;;;;;5041638;28;19947;-65
2024/01/01 06:35:48;;;;;;;;;;;;;;;;;;5038607;28;19982;-64
2024/01/01 06:38:15;;;;;;;;;;;;;;;;;;5042965;28;19959;-65
2024/01/01 06:40:43;;;;;;;;;;;;;;;;;;5041575;28;19974;-65
2024/01/01 06:43:10;;;;;;;;;;;;;;;;;;5046488;28;19952;-65
2024/01/01 06:45:37;;;;;;;;;;;;;;;;;;5047920;28;19924;-64
2024/01/01 06:48:04;;;;;;;;;;;;;;;;;;5045203;28;20341;-65
2024/01/01 06:50:31;;;;;;;;;;;;;;;;;;5040907;28;20629;-65
2024/01/01 06:52:57;;;;;;;;;;;;;;;;;;5043488;28;20371;-64
2024/01/01 06:55:24;;;;;;;;;;;;;;;;;;5045825;28;19920;-65
2024/01/01 06:57:52;;;;;;;;;;;;;;;;;;5043164;28;19937;-65
2024/01/01 07:00:20;;;;;;;;;;;;;;;;;;5044576;28;19974;-65
2024/01/01 07:02:46;;;;;;;;;;;;;;;;;;5047001;28;19928;-64
2024/01/01 07:05:13;;;;;;;;;;;;;;;;;;5041374;28;19970;-64
2024/01/01 07:07:40;;;;;;;;;;;;;;;;;;5042132;28;19978;-65
2024/01/01 07:10:07;;;;;;;;;;;;;;;;;;5043588;28;19928;-65
2024/01/01 07:12:34;;;;;;;;;;;;;;;;;;5045815;28;19968;-65
2024/01/01 07:15:02;;;;;;;;;;;;;;;;;;5046377;28;19978;-65
2024/01/01 07:17:29;;;;;;;;;;;;;;;;;;5046497;28;20339;-64
2024/01/01 07:19:56;;;;;;;;;;;;;;;;;;5043713;28;19927;-64
2024/01/01 07:22:23;;;;;;;;;;;;;;;;;;5043772;28;19920;-65
2024/01/01 07:24:50;;;;;;;;;;;;;;;;;;5042886;28;19921;-65
2024/01/01 07:27:16;;;;;;;;;;;;;;;;;;5042125;28;19921;-64
2024/01/01 07:29:43;;;;;;;;;;;;;;;;;;5042460;28;19925;-66
2024/01/01 07:32:10;;;;;;;;;;;;;;;;;;5048544;28;19924;-66
2024/01/01 07:34:37;;;;;;;;;;;;;;;;;;5050543;28;19921;-63
2024/01/01 07:37:04;;;;;;;;;;;;;;;;;;5048574;28;19932;-64
2024/01/01 07:39:31;;;;;;;;;;;;;;;;;;5045028;28;19979;-63
2024/01/01 07:41:58;;;;;;;;;;;;;;;;;;5047352;28;19920;-66
2024/01/01 07:44:25;;;;;;;;;;;;;;;;;;5044181;28;19921;-65
2024/01/01 07:46:52;;;;;;;;;;;;;;;;;;5047864;28;19925;-64
2024/01/01 07:49:19;;;;;;;;;;;;;;;;;;5045864;28;19926;-65
2024/01/01 07:51:46;;;;;;;;;;;;;;;;;;5046598;28;19920;-65
2024/01/01 07:54:12;;;;;;;;;;;;;;;;;;5048804;28;19970;-67
2024/01/01 07:56:43;;;;;;;;;;;;;;;;;;5045248;28;20372;-65
2024/01/01 07:59:10;;;;;;;;;;;;;;;;;;5047466;28;19999;-67
2024/01/01 08:01:37;;;;;;;;;;;;;;;;;;5044426;28;19933;-67
2024/01/01 08:04:04;;;;;;;;;;;;;;;;;;5048181;28;20313;-67
2024/01/01 08:06:31;;;;;;;;;;;;;;;;;;5047294;28;20380;-68
2024/01/01 08:08:57;;;;;;;;;;;;;;;;;;5046964;28;20346;-68
2024/01/01 08:11:24;;;;;;;;;;;;;;;;;;5045812;28;21075;-64
2024/01/01 08:13:51;;;;;;;;;;;;;;;;;;5054913;28;19925;-66
2024/01/01 08:16:19;;;;;;;;;;;;;;;;;;5060091;28;20272;-66
2024/01/01 08:18:47;;;;;;;;;;;;;;;;;;5051833;28;20359;-67
2024/01/01 08:21:14;;;;;;;;;;;;;;;;;;5054402;28;19925;-65
2024/01/01 08:23:41;;;;;;;;;;;;;;;;;;5050728;28;19987;-66
2024/01/01 08:26:08;;;;;;;;;;;;;;;;;;5046457;28;19968;-64
2024/01/01 08:28:34;;;;;;;;;;;;;;;;;;5049856;28;19921;-64
2024/01/01 08:31:01;;;;;;;;;;;;;;;;;;5050089;28;19924;-66
2024/01/01 08:33:28;;;;;;;;;;;;;;;;;;5047272;28;19967;-66
2024/01/01 08:35:56;;;;;;;;;;;;;;;;;;5046805;28;19974;-66
2024/01/01 08:38:23;;;;;;;;;;;;;;;;;;5053999;28;19920;-66
2024/01/01 08:40:49;;;;;;;;;;;;;;;;;;5048071;28;19983;-62
2024/01/01 08:43:16;;;;;;;;;;;;;;;;;;5045034;28;19967;-63
2024/01/01 08:45:43;;;;;;;;;;;;;;;;;;5047257;28;19967;-61
2024/01/01 08:48:10;;;;;;;;;;;;;;;;;;5046447;28;19974;-61
2024/01/01 08:50:37;;;;;;;;;;;;;;;;;;5049133;28;19928;-62
2024/01/01 08:53:04;;;;;;;;;;;;;;;;;;5045590;28;19921;-62
2024/01/01 08:55:30;;;;;;;;;;;;;;;;;;5046524;28;19968;-63
2024/01/01 08:57:58;;;;;;;;;;;;;;;;;;5045102;28;19921;-62
2024/01/01 09:00:25;;;;;;;;;;;;;;;;;;5043662;28;19921;-63
2024/01/01 09:02:52;;;;;;;;;;;;;;;;;;5046803;28;19994;-63
2024/01/01 09:05:19;;;;;;;;;;;;;;;;;;5044617;28;19924;-62
2024/01/01 09:07:46;;;;;;;;;;;;;;;;;;5042335;28;19920;-62
2024/01/01 09:10:13;;;;;;;;;;;;;;;;;;5046738;28;19975;-63
2024/01/01 09:12:40;;;;;;;;;;;;;;;;;;5044225;28;19921;-63
2024/01/01 09:15:06;;;;;;;;;;;;;;;;;;5057231;28;19921;-62
2024/01/01 09:17:34;;;;;;;;;;;;;;;;;;5052601;28;20189;-63
2024/01/01 09:20:03;;;;;;;;;;;;;;;;;;5046620;28;19920;-62
2024/01/01 09:22:29;;;;;;;;;;;;;;;;;;5042868;28;19921;-63
2024/01/01 09:24:56;;;;;;;;;;;;;;;;;;5054333;28;19924;-62
2024/01/01 09:27:23;;;;;;;;;;;;;;;;;;5046073;28;19925;-62
2024/01/01 09:29:50;;;;;;;;;;;;;;;;;;5049372;28;19920;-62
2024/01/01 09:32:17;;;;;;;;;;;;;;;;;;5057994;28;19974;-62
2024/01/01 09:34:44;;;;;;;;;;;;;;;;;;5043963;28;19983;-63
2024/01/01 09:37:11;;;;;;;;;;;;;;;;;;5050939;28;19920;-62
2024/01/01 09:39:38;;;;;;;;;;;;;;;;;;5046479;28;19943;-64
2024/01/01 09:42:04;;;;;;;;;;;;;;;;;;5047271;28;20028;-64
2024/01/01 09:44:32;;;;;;;;;;;;;;;;;;5051736;28;19982;-64
2024/01/01 09:46:59;;;;;;;;;;;;;;;;;;5046965;28;19925;-63
2024/01/01 09:49:26;;;;;;;;;;;;;;;;;;5044749;28;19921;-63
2024/01/01 09:51:53;;;;;;;;;;;;;;;;;;5048884;28;19979;-64
2024/01/01 09:54:19;;;;;;;;;;;;;;;;;;5049887;28;19967;-65
2024/01/01 09:56:47;;;;;;;;;;;;;;;;;;5055570;28;19948;-63
2024/01/01 09:59:14;;;;;;;;;;;;;;;;;;5053188;28;19920;-65
2024/01/01 10:01:44;;;;;;;;;;;;;;;;;;5053010;28;19925;-64
2024/01/01 10:04:10;;;;;;;;;;;;;;;;;;5052405;28;19920;-63
2024/01/01 10:06:38;;;;;;;;;;;;;;;;;;5051520;28;20005;-65
2024/01/01 10:09:06;;;;;;;;;;;;;;;;;;5053942;28;19920;-64
2024/01/01 10:11:33;;;;;;;;;;;;;;;;;;5049615;28;19968;-64
2024/01/01 10:13:59;;;;;;;;;;;;;;;;;;5054193;28;19924;-64
2024/01/01 10:16:26;;;;;;;;;;;;;;;;;;5051382;28;20354;-65
2024/01/01 10:18:53;;;;;;;;;;;;;;;;;;5049685;28;19986;-64
2024/01/01 10:21:20;;;;;;;;;;;;;;;;;;5052602;28;19921;-65
2024/01/01 10:23:47;;;;;;;;;;;;;;;;;;5051869;28;20434;-63
2024/01/01 10:26:14;;;;;;;;;;;;;;;;;;5051768;28;20382;-65
2024/01/01 10:28:41;;;;;;;;;;;;;;;;;;5049732;28;20019;-65
2024/01/01 10:31:08;;;;;;;;;;;;;;;;;;5052367;28;19925;-65
2024/01/01 10:33:34;;;;;;;;;;;;;;;;;;5048800;28;20015;-65
2024/01/01 10:36:02;;;;;;;;;;;;;;;;;;5053279;28;19920;-64
2024/01/01 10:38:29;;;;;;;;;;;;;;;;;;5049718;28;20008;-65
2024/01/01 10:40:56;;;;;;;;;;;;;;;;;;5052004;28;19921;-64
2024/01/01 10:43:22;;;;;;;;;;;;;;;;;;5054043;28;19929;-65
2024/01/01 10:45:49;;;;;;;;;;;;;;;;;;5053050;28;19924;-63
2024/01/01 10:48:17;;;;;;;;;;;;;;;;;;5054054;28;19921;-64
2024/01/01 10:50:44;;;;;;;;;;;;;;;;;;5051779;28;19921;-64
2024/01/01 10:53:11;;;;;;;;;;;;;;;;;;5051163;28;19921;-64
2024/01/01 10:55:38;;;;;;;;;;;;;;;;;;5041137;28;20446;-64
2024/01/01 10:58:06;;;;;;;;;;;;;;;;;;5046484;28;20329;-65
2024/01/01 11:00:32;;;;;;;;;;;;;;;;;;5049450;28;20467;-66
2024/01/01 11:02:59;;;;;;;;;;;;;;;;;;5048715;28;19921;-66
2024/01/01 11:05:26;;;;;;;;;;;;;;;;;;5040059;28;19925;-67
2024/01/01 11:07:53;;;;;;;;;;;;;;;;;;5041652;28;19925;-72
2024/01/01 11:10:20;;;;;;;;;;;;;;;;;;5039109;28;19983;-66
2024/01/01 11:12:47;;;;;;;;;;;;;;;;;;5044000;28;19925;-66
2024/01/01 11:15:14;;;;;;;;;;;;;;;;;;5043163;28;19929;-66
2024/01/01 11:17:41;;;;;;;;;;;;;;;;;;5044439;28;20372;-65
2024/01/01 11:20:09;;;;;;;;;;;;;;;;;;5045396;28;19974;-64
2024/01/01 11:22:39;;;;;;;;;;;;;;;;;;5041121;28;19952;-65
2024/01/01 11:25:06;;;;;;;;;;;;;;;;;;5043615;28;20368;-65
2024/01/01 11:27:33;;;;;;;;;;;;;;;;;;5040023;28;20399;-65
2024/01/01 11:30:00;;;;;;;;;;;;;;;;;;5043549;28;19928;-65
2024/01/01 11:32:27;;;;;;;;;;;;;;;;;;5040518;28;19983;-66
2024/01/01 11:34:53;;;;;;;;;;;;;;;;;;5045303;28;19921;-65
2024/01/01 11:37:20;;;;;;;;;;;;;;;;;;5041738;28;19921;-65
2024/01/01 11:39:47;;;;;;;;;;;;;;;;;;5041950;28;19924;-64
2024/01/01 11:42:14;;;;;;;;;;;;;;;;;;5043434;28;19921;-65
2024/01/01 11:44:41;;;;;;;;;;;;;;;;;;5041661;28;20376;-65
2024/01/01 11:47:08;;;;;;;;;;;;;;;;;;5043480;28;20437;-65
2024/01/01 11:49:35;;;;;;;;;;;;;;;;;;5039183;28;20433;-66
2024/01/01 11:52:04;;;;;;;;;;;;;;;;;;5043372;28;20383;-67
2024/01/01 11:54:31;;;;;;;;;;;;;;;;;;5040819;28;19928;-68
2024/01/01 11:56:58;;;;;;;;;;;;;;;;;;5044171;28;19920;-67
2024/01/01 11:59:25;;;;;;;;;;;;;;;;;;5046031;28;19967;-68
2024/01/01 12:01:55;;;;;;;;;;;;;;;;;;5041455;28;20007;-70
2024/01/01 12:04:22;;;;;;;;;;;;;;;;;;5046620;28;20349;-66
2024/01/01 12:06:49;;;;;;;;;;;;;;;;;;5039444;28;19921;-69
2024/01/01 12:09:16;;;;;;;;;;;;;;;;;;5046426;28;19977;-68
2024/01/01 12:11:42;;;;;;;;;;;;;;;;;;5046578;28;19992;-69
2024/01/01 12:14:09;;;;;;;;;;;;;;;;;;5046436;28;19921;-67
2024/01/01 12:16:36;;;;;;;;;;;;;;;;;;5043468;28;19929;-67
2024/01/01 12:19:03;;;;;;;;;;;;;;;;;;5046510;28;20381;-68
2024/01/01 12:21:30;;;;;;;;;;;;;;;;;;5050433;28;19921;-65
2024/01/01 12:23:57;;;;;;;;;;;;;;;;;;5044579;28;19975;-68
2024/01/01 12:26:24;;;;;;;;;;;;;;;;;;5043494;28;19976;-70
2024/01/01 12:28:50;;;;;;;;;;;;;;;;;;5047004;28;19928;-68
2024/01/01 12:31:17;;;;;;;;;;;;;;;;;;5046459;28;19975;-68
2024/01/01 12:33:44;;;;;;;;;;;;;;;;;;5045664;28;19975;-68
2024/01/01 12:36:11;;;;;;;;;;;;;;;;;;5045760;28;19974;-69
2024/01/01 12:38:38;;;;;;;;;;;;;;;;;;5043912;28;19967;-69
2024/01/01 12:41:05;;;;;;;;;;;;;;;;;;5046242;28;20378;-71
2024/01/01 12:43:32;;;;;;;;;;;;;;;;;;5042769;28;20435;-71
2024/01/01 12:45:59;;;;;;;;;;;;;;;;;;5049162;28;19974;-70
2024/01/01 12:48:30;;;;;;;;;;;;;;;;;;5043562;28;19928;-69
2024/01/01 12:50:57;;;;;;;;;;;;;;;;;;5046009;28;19921;-69
2024/01/01 12:53:23;;;;;;;;;;;;;;;;;;5048759;28;19920;-68
2024/01/01 12:55:50;;;;;;;;;;;;;;;;;;5044509;28;20493;-68
2024/01/01 12:58:18;;;;;;;;;;;;;;;;;;5045676;28;19929;-68
2024/01/01 13:00:45;;;;;;;;;;;;;;;;;;5043317;28;19921;-68
2024/01/01 13:03:12;;;;;;;;;;;;;;;;;;5046283;28;19921;-69
2024/01/01 13:05:38;;;;;;;;;;;;;;;;;;5042539;28;19921;-67
2024/01/01 13:08:05;;;;;;;;;;;;;;;;;;5046614;28;19917;-66
2024/01/01 13:10:32;;;;;;;;;;;;;;;;;;5044257;28;19974;-66
2024/01/01 13:12:59;;;;;;;;;;;;;;;;;;5045570;28;19921;-68
2024/01/01 13:15:25;;;;;;;;;;;;;;;;;;5045287;28;19920;-68
2024/01/01 13:17:52;;;;;;;;;;;;;;;;;;5043654;28;19975;-69
2024/01/01 13:20:19;;;;;;;;;;;;;;;;;;5041965;28;19975;-67
2024/01/01 13:22:46;;;;;;;;;;;;;;;;;;5042051;28;19975;-67
2024/01/01 13:25:13;;;;;;;;;;;;;;;;;;5043925;28;19925;-68
2024/01/01 13:27:40;;;;;;;;;;;;;;;;;;5045060;28;19921;-67
2024/01/01 13:30:06;;;;;;;;;;;;;;;;;;5044088;28;19967;-68
2024/01/01 13:32:33;;;;;;;;;;;;;;;;;;5044721;28;19928;-66
2024/01/01 13:35:00;;;;;;;;;;;;;;;;;;5043987;28;19928;-67
2024/01/01 13:37:27;;;;;;;;;;;;;;;;;;5045204;28;19967;-67
2024/01/01 13:39:54;;;;;;;;;;;;;;;;;;5042137;28;19974;-67
2024/01/01 13:42:21;;;;;;;;;;;;;;;;;;5042576;28;19920;-67
2024/01/01 13:44:48;;;;;;;;;;;;;;;;;;5044759;28;19921;-68
2024/01/01 13:47:15;;;;;;;;;;;;;;;;;;5044280;28;19974;-66
2024/01/01 13:49:42;;;;;;;;;;;;;;;;;;5047078;28;19924;-68
2024/01/01 13:52:09;;;;;;;;;;;;;;;;;;5043737;28;20513;-67
2024/01/01 13:54:35;;;;;;;;;;;;;;;;;;5037798;28;19924;-67
2024/01/01 13:57:03;;;;;;;;;;;;;;;;;;5044625;28;19921;-67
2024/01/01 13:59:29;;;;;;;;;;;;;;;;;;5038204;28;20287;-67
2024/01/01 14:01:56;;;;;;;;;;;;;;;;;;5044258;28;20643;-67
2024/01/01 14:04:23;;;;;;;;;;;;;;;;;;5040155;28;20330;-67
2024/01/01 14:06:50;;;;;;;;;;;;;;;;;;5043404;28;20371;-67
2024/01/01 14:09:17;;;;;;;;;;;;;;;;;;5041651;28;19925;-67
2024/01/01 14:11:44;;;;;;;;;;;;;;;;;;5041340;28;20335;-66
2024/01/01 14:14:11;;;;;;;;;;;;;;;;;;5043350;28;20302;-67
2024/01/01 14:16:37;;;;;;;;;;;;;;;;;;5040936;28;19941;-66
2024/01/01 14:19:04;;;;;;;;;;;;;;;;;;5043617;28;19925;-66
2024/01/01 14:21:31;;;;;;;;;;;;;;;;;;5041736;28;19921;-65
2024/01/01 14:23:58;;;;;;;;;;;;;;;;;;5039845;28;19975;-64
2024/01/01 14:26:25;;;;;;;;;;;;;;;;;;5043489;28;19925;-65
2024/01/01 14:28:52;;;;;;;;;;;;;;;;;;5044322;28;19974;-65
2024/01/01 14:31:19;;;;;;;;;;;;;;;;;;5044252;28;19975;-65
2024/01/01 14:33:46;;;;;;;;;;;;;;;;;;5041647;28;19921;-66
2024/01/01 14:36:13;;;;;;;;;;;;;;;;;;5043619;28;20434;-67
2024/01/01 14:38:40;;;;;;;;;;;;;;;;;;5045882;28;19963;-66
2024/01/01 14:41:07;;;;;;;;;;;;;;;;;;5041446;28;19920;-65
2024/01/01 14:43:34;;;;;;;;;;;;;;;;;;5043264;28;20510;-65
2024/01/01 14:46:01;;;;;;;;;;;;;;;;;;5042322;28;20459;-66
2024/01/01 14:48:28;;;;;;;;;;;;;;;;;;5042417;28;20526;-66
2024/01/01 14:50:55;;;;;;;;;;;;;;;;;;5044606;28;20265;-69
2024/01/01 14:53:22;;;;;;;;;;;;;;;;;;5045307;28;19960;-70
2024/01/01 14:55:49;;;;;;;;;;;;;;;;;;5041286;28;19983;-68
2024/01/01 14:58:16;;;;;;;;;;;;;;;;;;5042238;28;19920;-67
2024/01/01 15:00:43;;;;;;;;;;;;;;;;;;5040901;28;19925;-67
2024/01/01 15:03:10;;;;;;;;;;;;;;;;;;5042773;28;19973;-68
2024/01/01 15:05:37;;;;;;;;;;;;;;;;;;5041431;28;19925;-69
2024/01/01 15:08:04;;;;;;;;;;;;;;;;;;5040045;28;19955;-67
2024/01/01 15:10:31;;;;;;;;;;;;;;;;;;5039807;28;19978;-66
2024/01/01 15:12:58;;;;;;;;;;;;;;;;;;5040210;28;19925;-67
2024/01/01 15:15:25;;;;;;;;;;;;;;;;;;5038528;28;19967;-67
2024/01/01 15:17:52;;;;;;;;;;;;;;;;;;5042997;28;19929;-67
2024/01/01 15:20:19;;;;;;;;;;;;;;;;;;5038931;28;20015;-67
2024/01/01 15:22:46;;;;;;;;;;;;;;;;;;5036454;28;20016;-67
2024/01/01 15:25:13;;;;;;;;;;;;;;;;;;5040579;28;20002;-66
2024/01/01 15:27:40;;;;;;;;;;;;;;;;;;5040056;28;19944;-67
2024/01/01 15:30:07;;;;;;;;;;;;;;;;;;5041675;28;20518;-66
2024/01/01 15:32:34;;;;;;;;;;;;;;;;;;5040622;28;19921;-67
2024/01/01 15:35:03;;;;;;;;;;;;;;;;;;5041324;28;19953;-67
2024/01/01 15:37:29;;;;;;;;;;;;;;;;;;5042351;28;19920;-66
2024/01/01 15:40:00;;;;;;;;;;;;;;;;;;5042146;28;19974;-66
2024/01/01 15:42:27;;;;;;;;;;;;;;;;;;5046218;28;20409;-66
2024/01/01 15:44:54;;;;;;;;;;;;;;;;;;5040482;28;20350;-65
2024/01/01 15:47:21;;;;;;;;;;;;;;;;;;5043514;28;20433;-66
2024/01/01 15:49:48;;;;;;;;;;;;;;;;;;5045473;28;19932;-65
2024/01/01 15:52:14;;;;;;;;;;;;;;;;;;5048187;28;20008;-67
2024/01/01 15:54:41;;;;;;;;;;;;;;;;;;5044731;28;19974;-67
2024/01/01 15:57:08;;;;;;;;;;;;;;;;;;5046586;28;19960;-67
2024/01/01 15:59:35;;;;;;;;;;;;;;;;;;5046474;28;19924;-68
2024/01/01 16:02:03;;;;;;;;;;;;;;;;;;5045697;28;19974;-64
2024/01/01 16:04:30;;;;;;;;;;;;;;;;;;5046917;28;19974;-64
2024/01/01 16:06:57;;;;;;;;;;;;;;;;;;5047176;28;20007;-61
2024/01/01 16:09:24;;;;;;;;;;;;;;;;;;5043007;28;19929;-61
2024/01/01 16:11:51;;;;;;;;;;;;;;;;;;5040462;28;19921;-63
2024/01/01 16:14:18;;;;;;;;;;;;;;;;;;5042187;28;19921;-64
2024/01/01 16:16:45;;;;;;;;;;;;;;;;;;5041912;28;19929;-63
2024/01/01 16:19:12;;;;;;;;;;;;;;;;;;5045586;28;19921;-64
2024/01/01 16:21:39;;;;;;;;;;;;;;;;;;5045385;28;20382;-63
2024/01/01 16:24:05;;;;;;;;;;;;;;;;;;5048136;28;19921;-64
2024/01/01 16:26:32;;;;;;;;;;;;;;;;;;5043848;28;20284;-64
2024/01/01 16:28:59;;;;;;;;;;;;;;;;;;5049110;28;20335;-64
2024/01/01 16:31:26;;;;;;;;;;;;;;;;;;5045359;28;19921;-64
2024/01/01 16:33:53;;;;;;;;;;;;;;;;;;5043298;28;19921;-63
2024/01/01 16:36:20;;;;;;;;;;;;;;;;;;5045360;28;19925;-58
2024/01/01 16:38:47;;;;;;;;;;;;;;;;;;5042619;28;19924;-60
2024/01/01 16:41:14;;;;;;;;;;;;;;;;;;5045458;28;19928;-62
2024/01/01 16:43:41;;;;;;;;;;;;;;;;;;5042359;28;19975;-60